<?xml version="1.0" encoding="UTF-8"?>
<gpx xmlns="http://www.topografix.com/GPX/1/1" xmlns:xsi="http://www.w3.org/2001/XMLSchema-instance" version="1.1" xsi:schemaLocation="http://www.topografix.com/GPX/1/1 http://www.topografix.com/GPX/1/1/gpx.xsd">
  <metadata>
    <name>Aquacity Challenge 2022</name>
  </metadata>
  <trk>
    <name>Aquacity Challenge 2022</name>
    <trkseg>
      <trkpt lat="46.308877" lon="16.39495">
        <ele>164.84086</ele>
        <time>2023-08-06T09:20:00.000Z</time>
      </trkpt>
      <trkpt lat="46.308402" lon="16.395714">
        <ele>164.840859</ele>
        <time>2023-08-06T09:20:08.000Z</time>
      </trkpt>
      <trkpt lat="46.308177" lon="16.39627">
        <ele>164.758666</ele>
        <time>2023-08-06T09:20:13.000Z</time>
      </trkpt>
      <trkpt lat="46.308073" lon="16.396598">
        <ele>164.682489</ele>
        <time>2023-08-06T09:20:16.000Z</time>
      </trkpt>
      <trkpt lat="46.308025" lon="16.397092">
        <ele>164.572997</ele>
        <time>2023-08-06T09:20:20.000Z</time>
      </trkpt>
      <trkpt lat="46.307972" lon="16.397781">
        <ele>164.422625</ele>
        <time>2023-08-06T09:20:25.000Z</time>
      </trkpt>
      <trkpt lat="46.308009" lon="16.398282">
        <ele>164.311424</ele>
        <time>2023-08-06T09:20:29.000Z</time>
      </trkpt>
      <trkpt lat="46.308761" lon="16.402979">
        <ele>164.160501</ele>
        <time>2023-08-06T09:21:06.000Z</time>
      </trkpt>
      <trkpt lat="46.308848" lon="16.404041">
        <ele>163.886647</ele>
        <time>2023-08-06T09:21:14.000Z</time>
      </trkpt>
      <trkpt lat="46.308888" lon="16.404885">
        <ele>163.49856</ele>
        <time>2023-08-06T09:21:20.000Z</time>
      </trkpt>
      <trkpt lat="46.308866" lon="16.405326">
        <ele>163.294244</ele>
        <time>2023-08-06T09:21:23.000Z</time>
      </trkpt>
      <trkpt lat="46.308812" lon="16.406026">
        <ele>162.964569</ele>
        <time>2023-08-06T09:21:28.000Z</time>
      </trkpt>
      <trkpt lat="46.308751" lon="16.406492">
        <ele>162.81755</ele>
        <time>2023-08-06T09:21:32.000Z</time>
      </trkpt>
      <trkpt lat="46.308675" lon="16.406973">
        <ele>162.687957</ele>
        <time>2023-08-06T09:21:36.000Z</time>
      </trkpt>
      <trkpt lat="46.308466" lon="16.407854">
        <ele>162.437445</ele>
        <time>2023-08-06T09:21:43.000Z</time>
      </trkpt>
      <trkpt lat="46.308337" lon="16.408288">
        <ele>162.309378</ele>
        <time>2023-08-06T09:21:47.000Z</time>
      </trkpt>
      <trkpt lat="46.308013" lon="16.409073">
        <ele>162.225014</ele>
        <time>2023-08-06T09:21:54.000Z</time>
      </trkpt>
      <trkpt lat="46.307842" lon="16.409457">
        <ele>162.229192</ele>
        <time>2023-08-06T09:21:58.000Z</time>
      </trkpt>
      <trkpt lat="46.307364" lon="16.410236">
        <ele>162.238748</ele>
        <time>2023-08-06T09:22:06.000Z</time>
      </trkpt>
      <trkpt lat="46.307157" lon="16.410541">
        <ele>162.242829</ele>
        <time>2023-08-06T09:22:09.000Z</time>
      </trkpt>
      <trkpt lat="46.306885" lon="16.410877">
        <ele>162.229607</ele>
        <time>2023-08-06T09:22:13.000Z</time>
      </trkpt>
      <trkpt lat="46.306712" lon="16.411123">
        <ele>162.216389</ele>
        <time>2023-08-06T09:22:16.000Z</time>
      </trkpt>
      <trkpt lat="46.306495" lon="16.411328">
        <ele>162.203415</ele>
        <time>2023-08-06T09:22:19.000Z</time>
      </trkpt>
      <trkpt lat="46.305911" lon="16.411832">
        <ele>162.168078</ele>
        <time>2023-08-06T09:22:27.000Z</time>
      </trkpt>
      <trkpt lat="46.305596" lon="16.412033">
        <ele>162.151219</ele>
        <time>2023-08-06T09:22:31.000Z</time>
      </trkpt>
      <trkpt lat="46.304966" lon="16.412361">
        <ele>162.099385</ele>
        <time>2023-08-06T09:22:38.000Z</time>
      </trkpt>
      <trkpt lat="46.304568" lon="16.412492">
        <ele>162.068579</ele>
        <time>2023-08-06T09:22:43.000Z</time>
      </trkpt>
      <trkpt lat="46.303744" lon="16.412635">
        <ele>162.020768</ele>
        <time>2023-08-06T09:22:52.000Z</time>
      </trkpt>
      <trkpt lat="46.302555" lon="16.412638">
        <ele>162.08618</ele>
        <time>2023-08-06T09:23:05.000Z</time>
      </trkpt>
      <trkpt lat="46.299371" lon="16.412473">
        <ele>162.178068</ele>
        <time>2023-08-06T09:23:40.000Z</time>
      </trkpt>
      <trkpt lat="46.299146" lon="16.412492">
        <ele>162.179685</ele>
        <time>2023-08-06T09:23:43.000Z</time>
      </trkpt>
      <trkpt lat="46.299367" lon="16.412479">
        <ele>162.181312</ele>
        <time>2023-08-06T09:23:45.000Z</time>
      </trkpt>
      <trkpt lat="46.302551" lon="16.412648">
        <ele>162.080335</ele>
        <time>2023-08-06T09:24:20.000Z</time>
      </trkpt>
      <trkpt lat="46.303739" lon="16.41264">
        <ele>162.045443</ele>
        <time>2023-08-06T09:24:33.000Z</time>
      </trkpt>
      <trkpt lat="46.304577" lon="16.412486">
        <ele>162.069424</ele>
        <time>2023-08-06T09:24:42.000Z</time>
      </trkpt>
      <trkpt lat="46.304967" lon="16.412351">
        <ele>162.080997</ele>
        <time>2023-08-06T09:24:46.000Z</time>
      </trkpt>
      <trkpt lat="46.305614" lon="16.412034">
        <ele>162.130442</ele>
        <time>2023-08-06T09:24:54.000Z</time>
      </trkpt>
      <trkpt lat="46.305906" lon="16.411836">
        <ele>162.161226</ele>
        <time>2023-08-06T09:24:58.000Z</time>
      </trkpt>
      <trkpt lat="46.306492" lon="16.411338">
        <ele>162.22601</ele>
        <time>2023-08-06T09:25:06.000Z</time>
      </trkpt>
      <trkpt lat="46.306695" lon="16.411127">
        <ele>162.249815</ele>
        <time>2023-08-06T09:25:09.000Z</time>
      </trkpt>
      <trkpt lat="46.3069" lon="16.410862">
        <ele>162.250813</ele>
        <time>2023-08-06T09:25:12.000Z</time>
      </trkpt>
      <trkpt lat="46.307153" lon="16.410557">
        <ele>162.239889</ele>
        <time>2023-08-06T09:25:16.000Z</time>
      </trkpt>
      <trkpt lat="46.307369" lon="16.410236">
        <ele>162.230311</ele>
        <time>2023-08-06T09:25:19.000Z</time>
      </trkpt>
      <trkpt lat="46.307838" lon="16.40945">
        <ele>162.207945</ele>
        <time>2023-08-06T09:25:27.000Z</time>
      </trkpt>
      <trkpt lat="46.308011" lon="16.409075">
        <ele>162.214569</ele>
        <time>2023-08-06T09:25:30.000Z</time>
      </trkpt>
      <trkpt lat="46.30833" lon="16.40829">
        <ele>162.368655</ele>
        <time>2023-08-06T09:25:37.000Z</time>
      </trkpt>
      <trkpt lat="46.30847" lon="16.407846">
        <ele>162.449061</ele>
        <time>2023-08-06T09:25:41.000Z</time>
      </trkpt>
      <trkpt lat="46.308671" lon="16.406958">
        <ele>162.606346</ele>
        <time>2023-08-06T09:25:48.000Z</time>
      </trkpt>
      <trkpt lat="46.308762" lon="16.406498">
        <ele>162.776517</ele>
        <time>2023-08-06T09:25:52.000Z</time>
      </trkpt>
      <trkpt lat="46.308812" lon="16.406037">
        <ele>162.998578</ele>
        <time>2023-08-06T09:25:56.000Z</time>
      </trkpt>
      <trkpt lat="46.308877" lon="16.405329">
        <ele>163.333212</ele>
        <time>2023-08-06T09:26:01.000Z</time>
      </trkpt>
      <trkpt lat="46.308886" lon="16.404885">
        <ele>163.540597</ele>
        <time>2023-08-06T09:26:04.000Z</time>
      </trkpt>
      <trkpt lat="46.308858" lon="16.404032">
        <ele>163.88757</ele>
        <time>2023-08-06T09:26:11.000Z</time>
      </trkpt>
      <trkpt lat="46.308759" lon="16.402977">
        <ele>164.086979</ele>
        <time>2023-08-06T09:26:19.000Z</time>
      </trkpt>
      <trkpt lat="46.308014" lon="16.39827">
        <ele>164.337478</ele>
        <time>2023-08-06T09:26:56.000Z</time>
      </trkpt>
      <trkpt lat="46.30799" lon="16.397766">
        <ele>164.393084</ele>
        <time>2023-08-06T09:27:00.000Z</time>
      </trkpt>
      <trkpt lat="46.308018" lon="16.397095">
        <ele>164.468273</ele>
        <time>2023-08-06T09:27:05.000Z</time>
      </trkpt>
      <trkpt lat="46.308058" lon="16.39676">
        <ele>164.50536</ele>
        <time>2023-08-06T09:27:08.000Z</time>
      </trkpt>
      <trkpt lat="46.308064" lon="16.396674">
        <ele>164.514936</ele>
        <time>2023-08-06T09:27:09.000Z</time>
      </trkpt>
      <trkpt lat="46.308071" lon="16.396605">
        <ele>164.52226</ele>
        <time>2023-08-06T09:27:10.000Z</time>
      </trkpt>
      <trkpt lat="46.308067" lon="16.3966">
        <ele>164.522574</ele>
        <time>2023-08-06T09:27:10.000Z</time>
      </trkpt>
      <trkpt lat="46.308085" lon="16.396596">
        <ele>164.523055</ele>
        <time>2023-08-06T09:27:10.000Z</time>
      </trkpt>
      <trkpt lat="46.3081" lon="16.396486">
        <ele>164.52331</ele>
        <time>2023-08-06T09:27:11.000Z</time>
      </trkpt>
      <trkpt lat="46.308171" lon="16.396278">
        <ele>164.501509</ele>
        <time>2023-08-06T09:27:13.000Z</time>
      </trkpt>
      <trkpt lat="46.308409" lon="16.395713">
        <ele>164.439551</ele>
        <time>2023-08-06T09:27:18.000Z</time>
      </trkpt>
      <trkpt lat="46.308867" lon="16.394932">
        <ele>164.34214</ele>
        <time>2023-08-06T09:27:26.000Z</time>
      </trkpt>
      <trkpt lat="46.309435" lon="16.394062">
        <ele>164.189485</ele>
        <time>2023-08-06T09:27:35.000Z</time>
      </trkpt>
      <trkpt lat="46.309532" lon="16.393867">
        <ele>164.149562</ele>
        <time>2023-08-06T09:27:37.000Z</time>
      </trkpt>
      <trkpt lat="46.309699" lon="16.393407">
        <ele>164.067382</ele>
        <time>2023-08-06T09:27:41.000Z</time>
      </trkpt>
      <trkpt lat="46.309806" lon="16.392793">
        <ele>163.963718</ele>
        <time>2023-08-06T09:27:46.000Z</time>
      </trkpt>
      <trkpt lat="46.309927" lon="16.391839">
        <ele>163.903919</ele>
        <time>2023-08-06T09:27:53.000Z</time>
      </trkpt>
      <trkpt lat="46.310375" lon="16.386405">
        <ele>164.801422</ele>
        <time>2023-08-06T09:28:35.000Z</time>
      </trkpt>
      <trkpt lat="46.310549" lon="16.384112">
        <ele>165.246523</ele>
        <time>2023-08-06T09:28:53.000Z</time>
      </trkpt>
      <trkpt lat="46.310592" lon="16.382802">
        <ele>165.565035</ele>
        <time>2023-08-06T09:29:03.000Z</time>
      </trkpt>
      <trkpt lat="46.310638" lon="16.377096">
        <ele>166.679378</ele>
        <time>2023-08-06T09:29:47.000Z</time>
      </trkpt>
      <trkpt lat="46.310647" lon="16.373624">
        <ele>166.673866</ele>
        <time>2023-08-06T09:30:14.000Z</time>
      </trkpt>
      <trkpt lat="46.310686" lon="16.372581">
        <ele>166.601249</ele>
        <time>2023-08-06T09:30:22.000Z</time>
      </trkpt>
      <trkpt lat="46.310657" lon="16.372279">
        <ele>166.580143</ele>
        <time>2023-08-06T09:30:24.000Z</time>
      </trkpt>
      <trkpt lat="46.310608" lon="16.372141">
        <ele>166.570147</ele>
        <time>2023-08-06T09:30:25.000Z</time>
      </trkpt>
      <trkpt lat="46.310579" lon="16.371925">
        <ele>166.555027</ele>
        <time>2023-08-06T09:30:27.000Z</time>
      </trkpt>
      <trkpt lat="46.310622" lon="16.371678">
        <ele>166.536829</ele>
        <time>2023-08-06T09:30:29.000Z</time>
      </trkpt>
      <trkpt lat="46.310677" lon="16.371558">
        <ele>166.527529</ele>
        <time>2023-08-06T09:30:30.000Z</time>
      </trkpt>
      <trkpt lat="46.31075" lon="16.371479">
        <ele>166.520075</ele>
        <time>2023-08-06T09:30:31.000Z</time>
      </trkpt>
      <trkpt lat="46.310582" lon="16.371515">
        <ele>166.530894</ele>
        <time>2023-08-06T09:30:33.000Z</time>
      </trkpt>
      <trkpt lat="46.31057" lon="16.371524">
        <ele>166.531972</ele>
        <time>2023-08-06T09:30:33.000Z</time>
      </trkpt>
      <trkpt lat="46.310564" lon="16.371523">
        <ele>166.531978</ele>
        <time>2023-08-06T09:30:33.000Z</time>
      </trkpt>
      <trkpt lat="46.310534" lon="16.371524">
        <ele>166.534189</ele>
        <time>2023-08-06T09:30:33.000Z</time>
      </trkpt>
      <trkpt lat="46.310285" lon="16.371671">
        <ele>166.552251</ele>
        <time>2023-08-06T09:30:36.000Z</time>
      </trkpt>
      <trkpt lat="46.310158" lon="16.371762">
        <ele>166.561412</ele>
        <time>2023-08-06T09:30:38.000Z</time>
      </trkpt>
      <trkpt lat="46.310366" lon="16.37187">
        <ele>166.575428</ele>
        <time>2023-08-06T09:30:40.000Z</time>
      </trkpt>
      <trkpt lat="46.310356" lon="16.371885">
        <ele>166.575603</ele>
        <time>2023-08-06T09:30:40.000Z</time>
      </trkpt>
      <trkpt lat="46.310425" lon="16.37191">
        <ele>166.579647</ele>
        <time>2023-08-06T09:30:41.000Z</time>
      </trkpt>
      <trkpt lat="46.310456" lon="16.371934">
        <ele>166.582063</ele>
        <time>2023-08-06T09:30:41.000Z</time>
      </trkpt>
      <trkpt lat="46.310549" lon="16.372049">
        <ele>166.59074</ele>
        <time>2023-08-06T09:30:42.000Z</time>
      </trkpt>
      <trkpt lat="46.310613" lon="16.372147">
        <ele>166.596635</ele>
        <time>2023-08-06T09:30:43.000Z</time>
      </trkpt>
      <trkpt lat="46.310648" lon="16.372268">
        <ele>166.603322</ele>
        <time>2023-08-06T09:30:44.000Z</time>
      </trkpt>
      <trkpt lat="46.310677" lon="16.372569">
        <ele>166.617489</ele>
        <time>2023-08-06T09:30:46.000Z</time>
      </trkpt>
      <trkpt lat="46.310635" lon="16.37363">
        <ele>166.665676</ele>
        <time>2023-08-06T09:30:54.000Z</time>
      </trkpt>
      <trkpt lat="46.310644" lon="16.377093">
        <ele>166.645426</ele>
        <time>2023-08-06T09:31:21.000Z</time>
      </trkpt>
      <trkpt lat="46.310602" lon="16.382808">
        <ele>165.555229</ele>
        <time>2023-08-06T09:32:05.000Z</time>
      </trkpt>
      <trkpt lat="46.310557" lon="16.384101">
        <ele>165.266072</ele>
        <time>2023-08-06T09:32:15.000Z</time>
      </trkpt>
      <trkpt lat="46.310382" lon="16.386402">
        <ele>164.796269</ele>
        <time>2023-08-06T09:32:33.000Z</time>
      </trkpt>
      <trkpt lat="46.309918" lon="16.391841">
        <ele>163.962781</ele>
        <time>2023-08-06T09:33:15.000Z</time>
      </trkpt>
      <trkpt lat="46.309802" lon="16.392788">
        <ele>164.019054</ele>
        <time>2023-08-06T09:33:22.000Z</time>
      </trkpt>
      <trkpt lat="46.309695" lon="16.393419">
        <ele>164.056297</ele>
        <time>2023-08-06T09:33:27.000Z</time>
      </trkpt>
      <trkpt lat="46.309533" lon="16.39386">
        <ele>164.099275</ele>
        <time>2023-08-06T09:33:31.000Z</time>
      </trkpt>
      <trkpt lat="46.309433" lon="16.394066">
        <ele>164.142554</ele>
        <time>2023-08-06T09:33:33.000Z</time>
      </trkpt>
      <trkpt lat="46.308874" lon="16.39495">
        <ele>164.354205</ele>
        <time>2023-08-06T09:33:42.000Z</time>
      </trkpt>
      <trkpt lat="46.308394" lon="16.395712">
        <ele>164.534528</ele>
        <time>2023-08-06T09:33:50.000Z</time>
      </trkpt>
      <trkpt lat="46.308168" lon="16.396263">
        <ele>164.47827</ele>
        <time>2023-08-06T09:33:55.000Z</time>
      </trkpt>
      <trkpt lat="46.308101" lon="16.396475">
        <ele>164.457192</ele>
        <time>2023-08-06T09:33:57.000Z</time>
      </trkpt>
      <trkpt lat="46.308071" lon="16.396599">
        <ele>164.446298</ele>
        <time>2023-08-06T09:33:58.000Z</time>
      </trkpt>
      <trkpt lat="46.308077" lon="16.396604">
        <ele>164.445895</ele>
        <time>2023-08-06T09:33:58.000Z</time>
      </trkpt>
      <trkpt lat="46.308075" lon="16.396606">
        <ele>164.44562</ele>
        <time>2023-08-06T09:33:58.000Z</time>
      </trkpt>
      <trkpt lat="46.308075" lon="16.396668">
        <ele>164.439478</ele>
        <time>2023-08-06T09:33:58.000Z</time>
      </trkpt>
      <trkpt lat="46.308055" lon="16.396744">
        <ele>164.431453</ele>
        <time>2023-08-06T09:33:59.000Z</time>
      </trkpt>
      <trkpt lat="46.30801" lon="16.39709">
        <ele>164.4003</ele>
        <time>2023-08-06T09:34:02.000Z</time>
      </trkpt>
      <trkpt lat="46.307975" lon="16.397775">
        <ele>164.337158</ele>
        <time>2023-08-06T09:34:07.000Z</time>
      </trkpt>
      <trkpt lat="46.308008" lon="16.398277">
        <ele>164.298099</ele>
        <time>2023-08-06T09:34:11.000Z</time>
      </trkpt>
      <trkpt lat="46.308764" lon="16.402982">
        <ele>164.207194</ele>
        <time>2023-08-06T09:34:48.000Z</time>
      </trkpt>
      <trkpt lat="46.308851" lon="16.404043">
        <ele>163.85349</ele>
        <time>2023-08-06T09:34:56.000Z</time>
      </trkpt>
      <trkpt lat="46.308889" lon="16.404869">
        <ele>163.477628</ele>
        <time>2023-08-06T09:35:02.000Z</time>
      </trkpt>
      <trkpt lat="46.308868" lon="16.405322">
        <ele>163.279763</ele>
        <time>2023-08-06T09:35:05.000Z</time>
      </trkpt>
      <trkpt lat="46.308823" lon="16.406031">
        <ele>162.983617</ele>
        <time>2023-08-06T09:35:10.000Z</time>
      </trkpt>
      <trkpt lat="46.308751" lon="16.406502">
        <ele>162.840472</ele>
        <time>2023-08-06T09:35:14.000Z</time>
      </trkpt>
      <trkpt lat="46.308675" lon="16.406973">
        <ele>162.694537</ele>
        <time>2023-08-06T09:35:18.000Z</time>
      </trkpt>
      <trkpt lat="46.30847" lon="16.407857">
        <ele>162.412407</ele>
        <time>2023-08-06T09:35:25.000Z</time>
      </trkpt>
      <trkpt lat="46.308333" lon="16.408283">
        <ele>162.26818</ele>
        <time>2023-08-06T09:35:29.000Z</time>
      </trkpt>
      <trkpt lat="46.30802" lon="16.409088">
        <ele>162.242443</ele>
        <time>2023-08-06T09:35:36.000Z</time>
      </trkpt>
      <trkpt lat="46.307827" lon="16.409443">
        <ele>162.240324</ele>
        <time>2023-08-06T09:35:39.000Z</time>
      </trkpt>
      <trkpt lat="46.307371" lon="16.41023">
        <ele>162.235514</ele>
        <time>2023-08-06T09:35:47.000Z</time>
      </trkpt>
      <trkpt lat="46.307157" lon="16.410556">
        <ele>162.230936</ele>
        <time>2023-08-06T09:35:50.000Z</time>
      </trkpt>
      <trkpt lat="46.306889" lon="16.410871">
        <ele>162.220722</ele>
        <time>2023-08-06T09:35:54.000Z</time>
      </trkpt>
      <trkpt lat="46.306695" lon="16.411119">
        <ele>162.213141</ele>
        <time>2023-08-06T09:35:57.000Z</time>
      </trkpt>
      <trkpt lat="46.30649" lon="16.41132">
        <ele>162.205691</ele>
        <time>2023-08-06T09:36:00.000Z</time>
      </trkpt>
      <trkpt lat="46.305902" lon="16.411835">
        <ele>162.185427</ele>
        <time>2023-08-06T09:36:08.000Z</time>
      </trkpt>
      <trkpt lat="46.305604" lon="16.412024">
        <ele>162.163473</ele>
        <time>2023-08-06T09:36:12.000Z</time>
      </trkpt>
      <trkpt lat="46.304962" lon="16.412346">
        <ele>162.098217</ele>
        <time>2023-08-06T09:36:20.000Z</time>
      </trkpt>
      <trkpt lat="46.304578" lon="16.412494">
        <ele>162.059427</ele>
        <time>2023-08-06T09:36:24.000Z</time>
      </trkpt>
      <trkpt lat="46.303738" lon="16.412634">
        <ele>162.024479</ele>
        <time>2023-08-06T09:36:33.000Z</time>
      </trkpt>
      <trkpt lat="46.302548" lon="16.412641">
        <ele>162.088171</ele>
        <time>2023-08-06T09:36:46.000Z</time>
      </trkpt>
      <trkpt lat="46.299375" lon="16.412484">
        <ele>162.179384</ele>
        <time>2023-08-06T09:37:21.000Z</time>
      </trkpt>
      <trkpt lat="46.299143" lon="16.412484">
        <ele>162.182234</ele>
        <time>2023-08-06T09:37:24.000Z</time>
      </trkpt>
      <trkpt lat="46.299131" lon="16.412476">
        <ele>162.182307</ele>
        <time>2023-08-06T09:37:24.000Z</time>
      </trkpt>
      <trkpt lat="46.299136" lon="16.412477">
        <ele>162.182361</ele>
        <time>2023-08-06T09:37:24.000Z</time>
      </trkpt>
      <trkpt lat="46.299373" lon="16.412485">
        <ele>162.18522</ele>
        <time>2023-08-06T09:37:27.000Z</time>
      </trkpt>
      <trkpt lat="46.302547" lon="16.412653">
        <ele>162.079566</ele>
        <time>2023-08-06T09:38:02.000Z</time>
      </trkpt>
      <trkpt lat="46.303737" lon="16.412644">
        <ele>162.052337</ele>
        <time>2023-08-06T09:38:15.000Z</time>
      </trkpt>
      <trkpt lat="46.30458" lon="16.412494">
        <ele>162.061009</ele>
        <time>2023-08-06T09:38:24.000Z</time>
      </trkpt>
      <trkpt lat="46.304968" lon="16.41235">
        <ele>162.065193</ele>
        <time>2023-08-06T09:38:28.000Z</time>
      </trkpt>
      <trkpt lat="46.305608" lon="16.412037">
        <ele>162.134725</ele>
        <time>2023-08-06T09:38:36.000Z</time>
      </trkpt>
      <trkpt lat="46.3059" lon="16.411846">
        <ele>162.169564</ele>
        <time>2023-08-06T09:38:40.000Z</time>
      </trkpt>
      <trkpt lat="46.306492" lon="16.411331">
        <ele>162.242906</ele>
        <time>2023-08-06T09:38:48.000Z</time>
      </trkpt>
      <trkpt lat="46.306706" lon="16.411119">
        <ele>162.253376</ele>
        <time>2023-08-06T09:38:51.000Z</time>
      </trkpt>
      <trkpt lat="46.306897" lon="16.410865">
        <ele>162.24518</ele>
        <time>2023-08-06T09:38:54.000Z</time>
      </trkpt>
      <trkpt lat="46.30716" lon="16.410553">
        <ele>162.23416</ele>
        <time>2023-08-06T09:38:58.000Z</time>
      </trkpt>
      <trkpt lat="46.307374" lon="16.410227">
        <ele>162.2245</ele>
        <time>2023-08-06T09:39:01.000Z</time>
      </trkpt>
      <trkpt lat="46.30783" lon="16.409456">
        <ele>162.201935</ele>
        <time>2023-08-06T09:39:09.000Z</time>
      </trkpt>
      <trkpt lat="46.308012" lon="16.409086">
        <ele>162.247528</ele>
        <time>2023-08-06T09:39:12.000Z</time>
      </trkpt>
      <trkpt lat="46.308322" lon="16.40829">
        <ele>162.367131</ele>
        <time>2023-08-06T09:39:19.000Z</time>
      </trkpt>
      <trkpt lat="46.308468" lon="16.407852">
        <ele>162.429557</ele>
        <time>2023-08-06T09:39:23.000Z</time>
      </trkpt>
      <trkpt lat="46.308676" lon="16.406968">
        <ele>162.580757</ele>
        <time>2023-08-06T09:39:30.000Z</time>
      </trkpt>
      <trkpt lat="46.308763" lon="16.406496">
        <ele>162.800589</ele>
        <time>2023-08-06T09:39:34.000Z</time>
      </trkpt>
      <trkpt lat="46.308822" lon="16.406037">
        <ele>163.016233</ele>
        <time>2023-08-06T09:39:38.000Z</time>
      </trkpt>
      <trkpt lat="46.308872" lon="16.405325">
        <ele>163.341174</ele>
        <time>2023-08-06T09:39:43.000Z</time>
      </trkpt>
      <trkpt lat="46.308871" lon="16.404883">
        <ele>163.542543</ele>
        <time>2023-08-06T09:39:46.000Z</time>
      </trkpt>
      <trkpt lat="46.308845" lon="16.404034">
        <ele>163.830326</ele>
        <time>2023-08-06T09:39:53.000Z</time>
      </trkpt>
      <trkpt lat="46.308763" lon="16.402982">
        <ele>164.087571</ele>
        <time>2023-08-06T09:40:01.000Z</time>
      </trkpt>
      <trkpt lat="46.308004" lon="16.398278">
        <ele>164.356187</ele>
        <time>2023-08-06T09:40:38.000Z</time>
      </trkpt>
      <trkpt lat="46.307973" lon="16.397779">
        <ele>164.404944</ele>
        <time>2023-08-06T09:40:42.000Z</time>
      </trkpt>
      <trkpt lat="46.30802" lon="16.397088">
        <ele>164.470888</ele>
        <time>2023-08-06T09:40:47.000Z</time>
      </trkpt>
      <trkpt lat="46.308053" lon="16.396747">
        <ele>164.494106</ele>
        <time>2023-08-06T09:40:50.000Z</time>
      </trkpt>
      <trkpt lat="46.308062" lon="16.396663">
        <ele>164.488744</ele>
        <time>2023-08-06T09:40:51.000Z</time>
      </trkpt>
      <trkpt lat="46.308077" lon="16.396607">
        <ele>164.484631</ele>
        <time>2023-08-06T09:40:51.000Z</time>
      </trkpt>
      <trkpt lat="46.308073" lon="16.396595">
        <ele>164.484453</ele>
        <time>2023-08-06T09:40:51.000Z</time>
      </trkpt>
      <trkpt lat="46.308069" lon="16.3966">
        <ele>164.484178</ele>
        <time>2023-08-06T09:40:51.000Z</time>
      </trkpt>
      <trkpt lat="46.308114" lon="16.396492">
        <ele>164.476884</ele>
        <time>2023-08-06T09:40:52.000Z</time>
      </trkpt>
      <trkpt lat="46.308161" lon="16.396274">
        <ele>164.462805</ele>
        <time>2023-08-06T09:40:54.000Z</time>
      </trkpt>
      <trkpt lat="46.308397" lon="16.395702">
        <ele>164.422755</ele>
        <time>2023-08-06T09:40:59.000Z</time>
      </trkpt>
      <trkpt lat="46.308871" lon="16.394949">
        <ele>164.359816</ele>
        <time>2023-08-06T09:41:07.000Z</time>
      </trkpt>
      <trkpt lat="46.309449" lon="16.394072">
        <ele>164.185014</ele>
        <time>2023-08-06T09:41:16.000Z</time>
      </trkpt>
      <trkpt lat="46.309538" lon="16.393872">
        <ele>164.140588</ele>
        <time>2023-08-06T09:41:18.000Z</time>
      </trkpt>
      <trkpt lat="46.309689" lon="16.393423">
        <ele>164.049147</ele>
        <time>2023-08-06T09:41:22.000Z</time>
      </trkpt>
      <trkpt lat="46.309805" lon="16.392787">
        <ele>163.933775</ele>
        <time>2023-08-06T09:41:27.000Z</time>
      </trkpt>
      <trkpt lat="46.309914" lon="16.391841">
        <ele>163.936588</ele>
        <time>2023-08-06T09:41:34.000Z</time>
      </trkpt>
      <trkpt lat="46.310372" lon="16.386403">
        <ele>164.799426</ele>
        <time>2023-08-06T09:42:16.000Z</time>
      </trkpt>
      <trkpt lat="46.310557" lon="16.3841">
        <ele>165.253221</ele>
        <time>2023-08-06T09:42:34.000Z</time>
      </trkpt>
      <trkpt lat="46.310593" lon="16.382798">
        <ele>165.570461</ele>
        <time>2023-08-06T09:42:44.000Z</time>
      </trkpt>
      <trkpt lat="46.310648" lon="16.377106">
        <ele>166.702222</ele>
        <time>2023-08-06T09:43:28.000Z</time>
      </trkpt>
      <trkpt lat="46.31065" lon="16.373625">
        <ele>166.668155</ele>
        <time>2023-08-06T09:43:55.000Z</time>
      </trkpt>
      <trkpt lat="46.310677" lon="16.372569">
        <ele>166.595408</ele>
        <time>2023-08-06T09:44:03.000Z</time>
      </trkpt>
      <trkpt lat="46.310651" lon="16.372268">
        <ele>166.574268</ele>
        <time>2023-08-06T09:44:05.000Z</time>
      </trkpt>
      <trkpt lat="46.310605" lon="16.372141">
        <ele>166.564248</ele>
        <time>2023-08-06T09:44:06.000Z</time>
      </trkpt>
      <trkpt lat="46.310577" lon="16.371941">
        <ele>166.549106</ele>
        <time>2023-08-06T09:44:08.000Z</time>
      </trkpt>
      <trkpt lat="46.31062" lon="16.371674">
        <ele>166.533364</ele>
        <time>2023-08-06T09:44:10.000Z</time>
      </trkpt>
      <trkpt lat="46.310676" lon="16.371553">
        <ele>166.537722</ele>
        <time>2023-08-06T09:44:11.000Z</time>
      </trkpt>
      <trkpt lat="46.310734" lon="16.371478">
        <ele>166.542103</ele>
        <time>2023-08-06T09:44:12.000Z</time>
      </trkpt>
      <trkpt lat="46.310587" lon="16.371507">
        <ele>166.54968</ele>
        <time>2023-08-06T09:44:14.000Z</time>
      </trkpt>
      <trkpt lat="46.310574" lon="16.371508">
        <ele>166.550434</ele>
        <time>2023-08-06T09:44:14.000Z</time>
      </trkpt>
      <trkpt lat="46.310571" lon="16.371516">
        <ele>166.550426</ele>
        <time>2023-08-06T09:44:14.000Z</time>
      </trkpt>
      <trkpt lat="46.310545" lon="16.371531">
        <ele>166.551983</ele>
        <time>2023-08-06T09:44:14.000Z</time>
      </trkpt>
      <trkpt lat="46.310287" lon="16.371661">
        <ele>166.5646</ele>
        <time>2023-08-06T09:44:17.000Z</time>
      </trkpt>
      <trkpt lat="46.310166" lon="16.371774">
        <ele>166.571008</ele>
        <time>2023-08-06T09:44:19.000Z</time>
      </trkpt>
      <trkpt lat="46.31037" lon="16.371878">
        <ele>166.580809</ele>
        <time>2023-08-06T09:44:21.000Z</time>
      </trkpt>
      <trkpt lat="46.310363" lon="16.37188">
        <ele>166.580924</ele>
        <time>2023-08-06T09:44:21.000Z</time>
      </trkpt>
      <trkpt lat="46.310428" lon="16.371916">
        <ele>166.583745</ele>
        <time>2023-08-06T09:44:22.000Z</time>
      </trkpt>
      <trkpt lat="46.310447" lon="16.371932">
        <ele>166.585447</ele>
        <time>2023-08-06T09:44:22.000Z</time>
      </trkpt>
      <trkpt lat="46.310548" lon="16.372043">
        <ele>166.591493</ele>
        <time>2023-08-06T09:44:23.000Z</time>
      </trkpt>
      <trkpt lat="46.310613" lon="16.372138">
        <ele>166.595614</ele>
        <time>2023-08-06T09:44:24.000Z</time>
      </trkpt>
      <trkpt lat="46.310645" lon="16.372273">
        <ele>166.600295</ele>
        <time>2023-08-06T09:44:25.000Z</time>
      </trkpt>
      <trkpt lat="46.31069" lon="16.372575">
        <ele>166.61019</ele>
        <time>2023-08-06T09:44:27.000Z</time>
      </trkpt>
      <trkpt lat="46.310635" lon="16.373632">
        <ele>166.660027</ele>
        <time>2023-08-06T09:44:35.000Z</time>
      </trkpt>
      <trkpt lat="46.310648" lon="16.377106">
        <ele>166.65455</ele>
        <time>2023-08-06T09:45:02.000Z</time>
      </trkpt>
      <trkpt lat="46.310589" lon="16.3828">
        <ele>165.558311</ele>
        <time>2023-08-06T09:45:46.000Z</time>
      </trkpt>
      <trkpt lat="46.310559" lon="16.384108">
        <ele>165.270775</ele>
        <time>2023-08-06T09:45:56.000Z</time>
      </trkpt>
      <trkpt lat="46.310383" lon="16.386391">
        <ele>164.795513</ele>
        <time>2023-08-06T09:46:14.000Z</time>
      </trkpt>
      <trkpt lat="46.309915" lon="16.391835">
        <ele>163.985908</ele>
        <time>2023-08-06T09:46:56.000Z</time>
      </trkpt>
      <trkpt lat="46.309806" lon="16.392804">
        <ele>164.00636</ele>
        <time>2023-08-06T09:47:04.000Z</time>
      </trkpt>
      <trkpt lat="46.309688" lon="16.393408">
        <ele>164.019895</ele>
        <time>2023-08-06T09:47:09.000Z</time>
      </trkpt>
      <trkpt lat="46.309538" lon="16.393868">
        <ele>164.095697</ele>
        <time>2023-08-06T09:47:13.000Z</time>
      </trkpt>
      <trkpt lat="46.309438" lon="16.394068">
        <ele>164.141779</ele>
        <time>2023-08-06T09:47:15.000Z</time>
      </trkpt>
      <trkpt lat="46.308863" lon="16.394941">
        <ele>164.367194</ele>
        <time>2023-08-06T09:47:24.000Z</time>
      </trkpt>
      <trkpt lat="46.308397" lon="16.39572">
        <ele>164.492042</ele>
        <time>2023-08-06T09:47:32.000Z</time>
      </trkpt>
      <trkpt lat="46.308174" lon="16.396272">
        <ele>164.448109</ele>
        <time>2023-08-06T09:47:37.000Z</time>
      </trkpt>
      <trkpt lat="46.308111" lon="16.396488">
        <ele>164.432632</ele>
        <time>2023-08-06T09:47:39.000Z</time>
      </trkpt>
      <trkpt lat="46.308076" lon="16.396584">
        <ele>164.424637</ele>
        <time>2023-08-06T09:47:40.000Z</time>
      </trkpt>
      <trkpt lat="46.308085" lon="16.396605">
        <ele>164.424348</ele>
        <time>2023-08-06T09:47:40.000Z</time>
      </trkpt>
      <trkpt lat="46.308076" lon="16.396608">
        <ele>164.424142</ele>
        <time>2023-08-06T09:47:40.000Z</time>
      </trkpt>
      <trkpt lat="46.308075" lon="16.396668">
        <ele>164.419631</ele>
        <time>2023-08-06T09:47:40.000Z</time>
      </trkpt>
      <trkpt lat="46.308048" lon="16.396756">
        <ele>164.413738</ele>
        <time>2023-08-06T09:47:41.000Z</time>
      </trkpt>
      <trkpt lat="46.308017" lon="16.397087">
        <ele>164.390885</ele>
        <time>2023-08-06T09:47:44.000Z</time>
      </trkpt>
      <trkpt lat="46.307981" lon="16.397775">
        <ele>164.344532</ele>
        <time>2023-08-06T09:47:49.000Z</time>
      </trkpt>
      <trkpt lat="46.308013" lon="16.398274">
        <ele>164.328724</ele>
        <time>2023-08-06T09:47:53.000Z</time>
      </trkpt>
      <trkpt lat="46.308758" lon="16.402971">
        <ele>164.257601</ele>
        <time>2023-08-06T09:48:30.000Z</time>
      </trkpt>
      <trkpt lat="46.308847" lon="16.404028">
        <ele>163.81786</ele>
        <time>2023-08-06T09:48:38.000Z</time>
      </trkpt>
      <trkpt lat="46.308884" lon="16.404881">
        <ele>163.462507</ele>
        <time>2023-08-06T09:48:45.000Z</time>
      </trkpt>
      <trkpt lat="46.308881" lon="16.405323">
        <ele>163.275431</ele>
        <time>2023-08-06T09:48:48.000Z</time>
      </trkpt>
      <trkpt lat="46.308817" lon="16.406035">
        <ele>163.011763</ele>
        <time>2023-08-06T09:48:54.000Z</time>
      </trkpt>
      <trkpt lat="46.308749" lon="16.406495">
        <ele>162.852923</ele>
        <time>2023-08-06T09:48:58.000Z</time>
      </trkpt>
      <trkpt lat="46.308675" lon="16.406965">
        <ele>162.691006</ele>
        <time>2023-08-06T09:49:02.000Z</time>
      </trkpt>
      <trkpt lat="46.308465" lon="16.407843">
        <ele>162.377953</ele>
        <time>2023-08-06T09:49:09.000Z</time>
      </trkpt>
      <trkpt lat="46.308324" lon="16.408281">
        <ele>162.281601</ele>
        <time>2023-08-06T09:49:13.000Z</time>
      </trkpt>
      <trkpt lat="46.308007" lon="16.409081">
        <ele>162.259422</ele>
        <time>2023-08-06T09:49:20.000Z</time>
      </trkpt>
      <trkpt lat="46.307833" lon="16.409444">
        <ele>162.248496</ele>
        <time>2023-08-06T09:49:23.000Z</time>
      </trkpt>
      <trkpt lat="46.307365" lon="16.410224">
        <ele>162.223611</ele>
        <time>2023-08-06T09:49:31.000Z</time>
      </trkpt>
      <trkpt lat="46.307159" lon="16.410552">
        <ele>162.22148</ele>
        <time>2023-08-06T09:49:34.000Z</time>
      </trkpt>
      <trkpt lat="46.306884" lon="16.410871">
        <ele>162.219084</ele>
        <time>2023-08-06T09:49:38.000Z</time>
      </trkpt>
      <trkpt lat="46.306709" lon="16.411132">
        <ele>162.217318</ele>
        <time>2023-08-06T09:49:41.000Z</time>
      </trkpt>
      <trkpt lat="46.306499" lon="16.411336">
        <ele>162.215583</ele>
        <time>2023-08-06T09:49:44.000Z</time>
      </trkpt>
      <trkpt lat="46.305899" lon="16.411839">
        <ele>162.205562</ele>
        <time>2023-08-06T09:49:52.000Z</time>
      </trkpt>
      <trkpt lat="46.305601" lon="16.412041">
        <ele>162.168214</ele>
        <time>2023-08-06T09:49:56.000Z</time>
      </trkpt>
      <trkpt lat="46.304967" lon="16.412353">
        <ele>162.09073</ele>
        <time>2023-08-06T09:50:03.000Z</time>
      </trkpt>
      <trkpt lat="46.304563" lon="16.412478">
        <ele>162.04466</ele>
        <time>2023-08-06T09:50:08.000Z</time>
      </trkpt>
      <trkpt lat="46.303739" lon="16.412633">
        <ele>162.030194</ele>
        <time>2023-08-06T09:50:17.000Z</time>
      </trkpt>
      <trkpt lat="46.302544" lon="16.412654">
        <ele>162.088975</ele>
        <time>2023-08-06T09:50:30.000Z</time>
      </trkpt>
      <trkpt lat="46.299367" lon="16.412471">
        <ele>162.182065</ele>
        <time>2023-08-06T09:51:05.000Z</time>
      </trkpt>
      <trkpt lat="46.299132" lon="16.412475">
        <ele>162.186084</ele>
        <time>2023-08-06T09:51:08.000Z</time>
      </trkpt>
      <trkpt lat="46.299126" lon="16.412488">
        <ele>162.18617</ele>
        <time>2023-08-06T09:51:08.000Z</time>
      </trkpt>
      <trkpt lat="46.299127" lon="16.41249">
        <ele>162.186365</ele>
        <time>2023-08-06T09:51:08.000Z</time>
      </trkpt>
      <trkpt lat="46.299131" lon="16.41249">
        <ele>162.186552</ele>
        <time>2023-08-06T09:51:08.000Z</time>
      </trkpt>
      <trkpt lat="46.29913" lon="16.412479">
        <ele>162.186639</ele>
        <time>2023-08-06T09:51:08.000Z</time>
      </trkpt>
      <trkpt lat="46.299375" lon="16.412467">
        <ele>162.190632</ele>
        <time>2023-08-06T09:51:11.000Z</time>
      </trkpt>
      <trkpt lat="46.302542" lon="16.412647">
        <ele>162.080555</ele>
        <time>2023-08-06T09:51:46.000Z</time>
      </trkpt>
      <trkpt lat="46.303749" lon="16.412633">
        <ele>162.052433</ele>
        <time>2023-08-06T09:51:59.000Z</time>
      </trkpt>
      <trkpt lat="46.304571" lon="16.412487">
        <ele>162.043948</ele>
        <time>2023-08-06T09:52:08.000Z</time>
      </trkpt>
      <trkpt lat="46.304956" lon="16.412356">
        <ele>162.063853</ele>
        <time>2023-08-06T09:52:12.000Z</time>
      </trkpt>
      <trkpt lat="46.305598" lon="16.412028">
        <ele>162.14507</ele>
        <time>2023-08-06T09:52:20.000Z</time>
      </trkpt>
      <trkpt lat="46.305896" lon="16.411839">
        <ele>162.18423</ele>
        <time>2023-08-06T09:52:24.000Z</time>
      </trkpt>
      <trkpt lat="46.306501" lon="16.411324">
        <ele>162.254527</ele>
        <time>2023-08-06T09:52:32.000Z</time>
      </trkpt>
      <trkpt lat="46.306696" lon="16.411122">
        <ele>162.246516</ele>
        <time>2023-08-06T09:52:35.000Z</time>
      </trkpt>
      <trkpt lat="46.306884" lon="16.410862">
        <ele>162.238368</ele>
        <time>2023-08-06T09:52:38.000Z</time>
      </trkpt>
      <trkpt lat="46.307158" lon="16.410548">
        <ele>162.227388</ele>
        <time>2023-08-06T09:52:42.000Z</time>
      </trkpt>
      <trkpt lat="46.30736" lon="16.410221">
        <ele>162.217749</ele>
        <time>2023-08-06T09:52:45.000Z</time>
      </trkpt>
      <trkpt lat="46.307831" lon="16.409452">
        <ele>162.22138</ele>
        <time>2023-08-06T09:52:53.000Z</time>
      </trkpt>
      <trkpt lat="46.308013" lon="16.409072">
        <ele>162.264757</ele>
        <time>2023-08-06T09:52:57.000Z</time>
      </trkpt>
      <trkpt lat="46.308336" lon="16.408293">
        <ele>162.352747</ele>
        <time>2023-08-06T09:53:04.000Z</time>
      </trkpt>
      <trkpt lat="46.30846" lon="16.407846">
        <ele>162.398655</ele>
        <time>2023-08-06T09:53:08.000Z</time>
      </trkpt>
      <trkpt lat="46.308671" lon="16.406965">
        <ele>162.621433</ele>
        <time>2023-08-06T09:53:15.000Z</time>
      </trkpt>
      <trkpt lat="46.308764" lon="16.406495">
        <ele>162.829096</ele>
        <time>2023-08-06T09:53:19.000Z</time>
      </trkpt>
      <trkpt lat="46.308817" lon="16.406025">
        <ele>163.032802</ele>
        <time>2023-08-06T09:53:23.000Z</time>
      </trkpt>
      <trkpt lat="46.308863" lon="16.405329">
        <ele>163.339776</ele>
        <time>2023-08-06T09:53:28.000Z</time>
      </trkpt>
      <trkpt lat="46.308885" lon="16.404879">
        <ele>163.529994</ele>
        <time>2023-08-06T09:53:31.000Z</time>
      </trkpt>
      <trkpt lat="46.308851" lon="16.40404">
        <ele>163.793089</ele>
        <time>2023-08-06T09:53:37.000Z</time>
      </trkpt>
      <trkpt lat="46.30875" lon="16.402986">
        <ele>164.111818</ele>
        <time>2023-08-06T09:53:45.000Z</time>
      </trkpt>
      <trkpt lat="46.308007" lon="16.398277">
        <ele>164.365586</ele>
        <time>2023-08-06T09:54:22.000Z</time>
      </trkpt>
      <trkpt lat="46.307983" lon="16.397767">
        <ele>164.403143</ele>
        <time>2023-08-06T09:54:26.000Z</time>
      </trkpt>
      <trkpt lat="46.308017" lon="16.397086">
        <ele>164.451183</ele>
        <time>2023-08-06T09:54:31.000Z</time>
      </trkpt>
      <trkpt lat="46.308048" lon="16.396745">
        <ele>164.444151</ele>
        <time>2023-08-06T09:54:34.000Z</time>
      </trkpt>
      <trkpt lat="46.308071" lon="16.39667">
        <ele>164.442346</ele>
        <time>2023-08-06T09:54:35.000Z</time>
      </trkpt>
      <trkpt lat="46.30807" lon="16.396605">
        <ele>164.440963</ele>
        <time>2023-08-06T09:54:35.000Z</time>
      </trkpt>
      <trkpt lat="46.308071" lon="16.396588">
        <ele>164.440892</ele>
        <time>2023-08-06T09:54:35.000Z</time>
      </trkpt>
      <trkpt lat="46.308084" lon="16.396593">
        <ele>164.440817</ele>
        <time>2023-08-06T09:54:35.000Z</time>
      </trkpt>
      <trkpt lat="46.308112" lon="16.396492">
        <ele>164.438361</ele>
        <time>2023-08-06T09:54:36.000Z</time>
      </trkpt>
      <trkpt lat="46.308173" lon="16.396266">
        <ele>164.433597</ele>
        <time>2023-08-06T09:54:38.000Z</time>
      </trkpt>
      <trkpt lat="46.308404" lon="16.395718">
        <ele>164.420108</ele>
        <time>2023-08-06T09:54:43.000Z</time>
      </trkpt>
      <trkpt lat="46.308873" lon="16.39495">
        <ele>164.398891</ele>
        <time>2023-08-06T09:54:51.000Z</time>
      </trkpt>
      <trkpt lat="46.309449" lon="16.394062">
        <ele>164.172743</ele>
        <time>2023-08-06T09:55:00.000Z</time>
      </trkpt>
      <trkpt lat="46.309532" lon="16.393861">
        <ele>164.124818</ele>
        <time>2023-08-06T09:55:02.000Z</time>
      </trkpt>
      <trkpt lat="46.309696" lon="16.39342">
        <ele>164.026172</ele>
        <time>2023-08-06T09:55:06.000Z</time>
      </trkpt>
      <trkpt lat="46.309805" lon="16.392795">
        <ele>163.901708</ele>
        <time>2023-08-06T09:55:11.000Z</time>
      </trkpt>
      <trkpt lat="46.309915" lon="16.39184">
        <ele>163.967065</ele>
        <time>2023-08-06T09:55:18.000Z</time>
      </trkpt>
      <trkpt lat="46.31038" lon="16.386389">
        <ele>164.796559</ele>
        <time>2023-08-06T09:56:00.000Z</time>
      </trkpt>
      <trkpt lat="46.310542" lon="16.384118">
        <ele>165.261945</ele>
        <time>2023-08-06T09:56:18.000Z</time>
      </trkpt>
      <trkpt lat="46.310598" lon="16.382799">
        <ele>165.573781</ele>
        <time>2023-08-06T09:56:28.000Z</time>
      </trkpt>
      <trkpt lat="46.310638" lon="16.377109">
        <ele>166.714497</ele>
        <time>2023-08-06T09:57:12.000Z</time>
      </trkpt>
      <trkpt lat="46.310639" lon="16.373629">
        <ele>166.661477</ele>
        <time>2023-08-06T09:57:39.000Z</time>
      </trkpt>
      <trkpt lat="46.310675" lon="16.372585">
        <ele>166.590851</ele>
        <time>2023-08-06T09:57:47.000Z</time>
      </trkpt>
      <trkpt lat="46.310656" lon="16.372279">
        <ele>166.570338</ele>
        <time>2023-08-06T09:57:49.000Z</time>
      </trkpt>
      <trkpt lat="46.3106" lon="16.372148">
        <ele>166.560607</ele>
        <time>2023-08-06T09:57:50.000Z</time>
      </trkpt>
      <trkpt lat="46.310576" lon="16.371923">
        <ele>166.551827</ele>
        <time>2023-08-06T09:57:52.000Z</time>
      </trkpt>
      <trkpt lat="46.310626" lon="16.371674">
        <ele>166.556017</ele>
        <time>2023-08-06T09:57:54.000Z</time>
      </trkpt>
      <trkpt lat="46.310675" lon="16.371558">
        <ele>166.558168</ele>
        <time>2023-08-06T09:57:55.000Z</time>
      </trkpt>
      <trkpt lat="46.310741" lon="16.371467">
        <ele>166.560321</ele>
        <time>2023-08-06T09:57:56.000Z</time>
      </trkpt>
      <trkpt lat="46.310582" lon="16.37151">
        <ele>166.56404</ele>
        <time>2023-08-06T09:57:58.000Z</time>
      </trkpt>
      <trkpt lat="46.310561" lon="16.371514">
        <ele>166.56441</ele>
        <time>2023-08-06T09:57:58.000Z</time>
      </trkpt>
      <trkpt lat="46.31057" lon="16.371512">
        <ele>166.564421</ele>
        <time>2023-08-06T09:57:58.000Z</time>
      </trkpt>
      <trkpt lat="46.310538" lon="16.371534">
        <ele>166.565178</ele>
        <time>2023-08-06T09:57:58.000Z</time>
      </trkpt>
      <trkpt lat="46.310288" lon="16.371664">
        <ele>166.571378</ele>
        <time>2023-08-06T09:58:01.000Z</time>
      </trkpt>
      <trkpt lat="46.310162" lon="16.371762">
        <ele>166.574539</ele>
        <time>2023-08-06T09:58:03.000Z</time>
      </trkpt>
      <trkpt lat="46.310367" lon="16.371881">
        <ele>166.57936</ele>
        <time>2023-08-06T09:58:05.000Z</time>
      </trkpt>
      <trkpt lat="46.310367" lon="16.371875">
        <ele>166.579417</ele>
        <time>2023-08-06T09:58:05.000Z</time>
      </trkpt>
      <trkpt lat="46.310412" lon="16.371918">
        <ele>166.580809</ele>
        <time>2023-08-06T09:58:06.000Z</time>
      </trkpt>
      <trkpt lat="46.310448" lon="16.371942">
        <ele>166.581647</ele>
        <time>2023-08-06T09:58:06.000Z</time>
      </trkpt>
      <trkpt lat="46.310565" lon="16.372054">
        <ele>166.584627</ele>
        <time>2023-08-06T09:58:08.000Z</time>
      </trkpt>
      <trkpt lat="46.310609" lon="16.372143">
        <ele>166.586655</ele>
        <time>2023-08-06T09:58:09.000Z</time>
      </trkpt>
      <trkpt lat="46.310645" lon="16.372269">
        <ele>166.588964</ele>
        <time>2023-08-06T09:58:10.000Z</time>
      </trkpt>
      <trkpt lat="46.310682" lon="16.372583">
        <ele>166.597826</ele>
        <time>2023-08-06T09:58:12.000Z</time>
      </trkpt>
      <trkpt lat="46.310639" lon="16.373627">
        <ele>166.658087</ele>
        <time>2023-08-06T09:58:20.000Z</time>
      </trkpt>
      <trkpt lat="46.310643" lon="16.377109">
        <ele>166.673215</ele>
        <time>2023-08-06T09:58:47.000Z</time>
      </trkpt>
      <trkpt lat="46.31059" lon="16.382799">
        <ele>165.565773</ele>
        <time>2023-08-06T09:59:31.000Z</time>
      </trkpt>
      <trkpt lat="46.310548" lon="16.384103">
        <ele>165.271387</ele>
        <time>2023-08-06T09:59:41.000Z</time>
      </trkpt>
      <trkpt lat="46.310373" lon="16.386398">
        <ele>164.794877</ele>
        <time>2023-08-06T09:59:59.000Z</time>
      </trkpt>
      <trkpt lat="46.309912" lon="16.391851">
        <ele>163.996275</ele>
        <time>2023-08-06T10:00:41.000Z</time>
      </trkpt>
      <trkpt lat="46.309812" lon="16.392801">
        <ele>163.978842</ele>
        <time>2023-08-06T10:00:48.000Z</time>
      </trkpt>
      <trkpt lat="46.309693" lon="16.39341">
        <ele>163.968710287</ele>
        <time>2023-08-06T10:00:53.000Z</time>
      </trkpt>
      <trkpt lat="46.309547" lon="16.393878">
        <ele>163.960489688</ele>
        <time>2023-08-06T10:00:57.000Z</time>
      </trkpt>
      <trkpt lat="46.309445" lon="16.394063">
        <ele>163.956700386</ele>
        <time>2023-08-06T10:00:59.000Z</time>
      </trkpt>
      <trkpt lat="46.30887" lon="16.394942">
        <ele>163.937320392</ele>
        <time>2023-08-06T10:01:08.000Z</time>
      </trkpt>
    </trkseg>
  </trk>
</gpx>

<!--
Performance optimized by W3 Total Cache. Learn more: https://www.boldgrid.com/w3-total-cache/?utm_source=w3tc&utm_medium=footer_comment&utm_campaign=free_plugin

Page Caching using Disk: Enhanced{w3tc_pagecache_reject_reason} 

Served from: www.aquabike.world @ 2026-05-07 12:46:12 by W3 Total Cache
-->